createdAt,value
2023-03-12T00:02:22.348Z,1.20
2023-03-12T00:04:49.038Z,0.80
2023-03-12T00:07:15.685Z,0.98
2023-03-12T00:09:42.301Z,1.30
2023-03-12T00:12:09.228Z,1.27
2023-03-12T00:14:36.671Z,1.05
2023-03-12T00:17:03.273Z,0.93
2023-03-12T00:19:29.923Z,2.10
2023-03-12T00:21:56.632Z,1.75
2023-03-12T00:24:23.288Z,1.50
2023-03-12T00:26:49.854Z,0.95
2023-03-12T00:29:16.485Z,1.50
2023-03-12T00:31:43.431Z,1.02
2023-03-12T00:34:10.881Z,1.73
2023-03-12T00:36:38.105Z,1.33
2023-03-12T00:39:04.740Z,1.20
2023-03-12T00:41:31.411Z,1.42
2023-03-12T00:43:58.075Z,2.22
2023-03-12T00:46:24.997Z,1.35
2023-03-12T00:48:51.909Z,1.20
2023-03-12T00:51:19.312Z,1.85
2023-03-12T00:53:46.145Z,1.35
2023-03-12T00:56:12.751Z,1.33
2023-03-12T00:58:39.608Z,1.33
2023-03-12T01:01:06.382Z,1.55
2023-03-12T01:03:33.268Z,1.40
2023-03-12T01:06:00.164Z,1.60
2023-03-12T01:08:26.780Z,1.52
2023-03-12T01:10:53.596Z,1.52
2023-03-12T01:13:20.642Z,1.27
2023-03-12T01:15:47.376Z,0.98
2023-03-12T01:18:14.132Z,2.20
2023-03-12T01:20:41.108Z,1.65
2023-03-12T01:23:07.994Z,1.30
2023-03-12T01:25:35.297Z,1.42
2023-03-12T01:28:02.354Z,1.67
2023-03-12T01:30:29.784Z,1.30
2023-03-12T01:32:56.648Z,1.55
2023-03-12T01:35:23.326Z,1.33
2023-03-12T01:37:49.949Z,1.67
2023-03-12T01:40:26.135Z,2.03
2023-03-12T01:42:58.146Z,1.88
2023-03-12T01:46:02.917Z,1.80
2023-03-12T01:48:35.669Z,1.83
2023-03-12T01:51:02.742Z,1.92
2023-03-12T01:53:30.310Z,1.70
2023-03-12T01:56:00.147Z,1.50
2023-03-12T01:58:28.681Z,2.03
2023-03-12T02:00:55.645Z,1.60
2023-03-12T02:03:22.637Z,1.33
2023-03-12T02:05:54.989Z,1.20
2023-03-12T02:08:23.625Z,1.02
2023-03-12T02:10:50.966Z,1.27
2023-03-12T02:13:17.738Z,1.35
2023-03-12T02:15:44.367Z,1.63
2023-03-12T02:18:15.127Z,1.63
2023-03-12T02:21:04.343Z,1.75
2023-03-12T02:24:08.110Z,1.25
2023-03-12T02:26:38.026Z,1.30
2023-03-12T02:29:05.639Z,1.80
2023-03-12T02:31:39.106Z,1.92
2023-03-12T02:34:05.924Z,1.48
2023-03-12T02:36:32.734Z,1.77
2023-03-12T02:38:59.430Z,1.77
2023-03-12T02:41:41.717Z,2.00
2023-03-12T02:46:42.703Z,1.40
2023-03-12T02:49:11.912Z,1.67
2023-03-12T02:51:38.990Z,1.88
2023-03-12T02:54:05.782Z,1.73
2023-03-12T02:56:32.641Z,1.20
2023-03-12T02:58:59.398Z,1.63
2023-03-12T03:01:26.959Z,1.50
2023-03-12T03:03:54.881Z,2.35
2023-03-12T03:06:21.815Z,1.73
2023-03-12T03:08:48.493Z,1.10
2023-03-12T03:11:15.128Z,1.90
2023-03-12T03:13:41.766Z,2.05
2023-03-12T03:16:08.762Z,1.50
2023-03-12T03:18:35.607Z,1.55
2023-03-12T03:21:05.904Z,1.70
2023-03-12T03:23:33.466Z,1.95
2023-03-12T03:26:03.269Z,1.63
2023-03-12T03:28:31.197Z,1.20
2023-03-12T03:31:01.483Z,1.45
2023-03-12T03:33:29.936Z,1.80
2023-03-12T03:35:59.554Z,1.20
2023-03-12T03:38:27.804Z,1.20
2023-03-12T03:40:55.214Z,1.52
2023-03-12T03:43:22.826Z,2.17
2023-03-12T03:45:56.275Z,1.17
2023-03-12T03:48:22.875Z,1.67
2023-03-12T03:50:49.479Z,2.00
2023-03-12T03:53:16.113Z,1.52
2023-03-12T03:55:42.715Z,1.77
2023-03-12T03:58:09.285Z,1.60
2023-03-12T04:00:35.976Z,1.98
2023-03-12T04:03:02.641Z,1.50
2023-03-12T04:05:29.747Z,1.80
2023-03-12T04:07:56.576Z,1.00
2023-03-12T04:10:24.942Z,0.90
2023-03-12T04:12:52.869Z,1.30
2023-03-12T04:15:19.528Z,1.45
2023-03-12T04:17:46.117Z,1.02
2023-03-12T04:20:13.069Z,1.25
2023-03-12T04:22:40.098Z,0.98
2023-03-12T04:25:07.490Z,1.13
2023-03-12T04:27:34.757Z,1.02
2023-03-12T04:30:01.389Z,1.00
2023-03-12T04:32:28.074Z,1.08
2023-03-12T04:34:54.799Z,0.90
2023-03-12T04:37:21.942Z,1.42
2023-03-12T04:39:48.556Z,1.27
2023-03-12T04:42:15.207Z,1.30
2023-03-12T04:44:41.925Z,1.00
2023-03-12T04:47:08.704Z,0.88
2023-03-12T04:49:38.443Z,1.05
2023-03-12T04:52:05.354Z,1.10
2023-03-12T04:54:33.023Z,1.52
2023-03-12T04:56:59.624Z,0.80
2023-03-12T04:59:26.331Z,0.80
2023-03-12T05:01:53.021Z,0.98
2023-03-12T05:04:19.668Z,1.10
2023-03-12T05:06:46.302Z,0.80
2023-03-12T05:09:12.985Z,1.10
2023-03-12T05:11:40.066Z,1.00
2023-03-12T05:14:06.697Z,1.10
2023-03-12T05:16:33.522Z,1.13
2023-03-12T05:19:00.308Z,1.05
2023-03-12T05:21:26.899Z,1.40
2023-03-12T05:23:54.003Z,0.90
2023-03-12T05:26:23.994Z,1.00
2023-03-12T05:28:51.053Z,1.02
2023-03-12T05:31:18.416Z,1.50
2023-03-12T05:33:46.277Z,1.35
2023-03-12T05:36:13.481Z,1.20
2023-03-12T05:38:40.634Z,1.50
2023-03-12T05:41:07.342Z,1.20
2023-03-12T05:43:34.565Z,1.08
2023-03-12T05:46:04.124Z,0.70
2023-03-12T05:48:31.647Z,0.70
2023-03-12T05:50:58.693Z,0.88
2023-03-12T05:53:25.519Z,0.82
2023-03-12T05:55:52.152Z,0.80
2023-03-12T05:58:19.161Z,0.63
2023-03-12T06:00:45.911Z,0.38
2023-03-12T06:03:13.375Z,0.45
2023-03-12T06:05:40.295Z,1.38
2023-03-12T06:08:07.816Z,1.10
2023-03-12T06:10:34.533Z,0.73
2023-03-12T06:13:01.124Z,0.85
2023-03-12T06:15:34.166Z,0.57
2023-03-12T06:18:00.755Z,0.60
2023-03-12T06:20:27.356Z,1.05
2023-03-12T06:22:53.989Z,0.68
2023-03-12T06:25:20.562Z,0.65
2023-03-12T06:27:47.550Z,0.50
2023-03-12T06:30:14.869Z,0.63
2023-03-12T06:32:41.582Z,0.50
2023-03-12T06:35:08.729Z,0.55
2023-03-12T06:37:35.612Z,0.60
2023-03-12T06:40:02.225Z,0.57
2023-03-12T06:42:28.782Z,0.63
2023-03-12T06:44:55.354Z,0.45
2023-03-12T06:47:22.133Z,0.50
2023-03-12T06:49:48.803Z,0.73
2023-03-12T06:52:15.411Z,0.40
2023-03-12T06:54:42.223Z,0.82
2023-03-12T06:57:09.067Z,0.80
2023-03-12T06:59:35.733Z,0.68
2023-03-12T07:02:02.662Z,0.95
2023-03-12T07:04:29.401Z,0.82
2023-03-12T07:06:56.020Z,0.55
2023-03-12T07:09:22.690Z,0.80
2023-03-12T07:11:49.344Z,0.68
2023-03-12T07:14:16.061Z,0.82
2023-03-12T07:16:42.710Z,0.82
2023-03-12T07:19:09.382Z,0.80
2023-03-12T07:21:36.043Z,0.80
2023-03-12T07:24:06.946Z,0.73
2023-03-12T07:26:35.590Z,0.95
2023-03-12T07:29:04.057Z,1.00
2023-03-12T07:31:30.815Z,0.80
2023-03-12T07:33:57.628Z,0.98
2023-03-12T07:36:24.588Z,0.85
2023-03-12T07:38:51.452Z,0.63
2023-03-12T07:41:18.073Z,1.02
2023-03-12T07:43:44.761Z,0.65
2023-03-12T07:46:11.599Z,0.90
2023-03-12T07:48:40.930Z,0.40
2023-03-12T07:51:08.684Z,0.82
2023-03-12T07:53:35.343Z,0.52
2023-03-12T07:56:02.141Z,0.70
2023-03-12T07:58:28.988Z,1.02
2023-03-12T08:00:56.553Z,0.60
2023-03-12T08:03:23.734Z,0.80
2023-03-12T08:05:59.043Z,0.50
2023-03-12T08:08:26.229Z,0.82
2023-03-12T08:10:53.676Z,0.75
2023-03-12T08:13:20.424Z,0.80
2023-03-12T08:15:47.166Z,0.70
2023-03-12T08:18:13.788Z,0.52
2023-03-12T08:20:40.523Z,0.98
2023-03-12T08:23:07.147Z,0.68
2023-03-12T08:25:34.032Z,0.40
2023-03-12T08:28:00.607Z,0.45
2023-03-12T08:30:29.814Z,0.52
2023-03-12T08:32:57.567Z,0.93
2023-03-12T08:35:24.327Z,0.40
2023-03-12T08:37:50.912Z,0.60
2023-03-12T08:40:18.683Z,0.82
2023-03-12T08:42:45.778Z,0.50
2023-03-12T08:45:13.368Z,0.65
2023-03-12T08:47:41.797Z,0.75
2023-03-12T08:50:12.952Z,0.80
2023-03-12T08:52:40.125Z,0.80
2023-03-12T08:55:07.030Z,0.40
2023-03-12T08:57:33.646Z,0.93
2023-03-12T09:00:00.301Z,0.63
2023-03-12T09:02:26.937Z,0.65
2023-03-12T09:04:53.636Z,0.70
2023-03-12T09:07:22.187Z,0.85
2023-03-12T09:09:48.815Z,0.88
2023-03-12T09:12:15.514Z,0.73
2023-03-12T09:15:02.418Z,0.70
2023-03-12T09:17:30.400Z,0.50
2023-03-12T09:19:57.008Z,1.13
2023-03-12T09:22:23.693Z,0.43
2023-03-12T09:24:50.354Z,1.30
2023-03-12T09:27:17.079Z,0.73
2023-03-12T09:29:58.706Z,1.10
2023-03-12T09:32:27.832Z,0.77
2023-03-12T09:34:55.072Z,0.63
2023-03-12T09:37:24.087Z,0.60
2023-03-12T09:39:52.247Z,0.50
2023-03-12T09:42:36.404Z,0.63
2023-03-12T09:45:06.166Z,1.00
2023-03-12T09:47:37.182Z,0.55
2023-03-12T09:50:17.391Z,0.98
2023-03-12T09:52:57.961Z,0.38
2023-03-12T09:55:25.671Z,0.82
2023-03-12T09:57:53.060Z,0.60
2023-03-12T10:00:34.518Z,0.60
2023-03-12T10:03:23.323Z,0.60
2023-03-12T10:06:14.936Z,0.70
2023-03-12T10:09:03.009Z,0.68
2023-03-12T10:11:51.031Z,0.35
2023-03-12T10:14:30.159Z,0.60
2023-03-12T10:17:14.204Z,0.40
2023-03-12T10:20:13.070Z,0.52
2023-03-12T10:23:07.478Z,1.00
2023-03-12T10:25:50.125Z,0.60
2023-03-12T10:28:37.698Z,0.43
2023-03-12T10:31:15.254Z,0.98
2023-03-12T10:33:48.189Z,0.70
2023-03-12T10:36:23.477Z,0.80
2023-03-12T10:38:50.241Z,0.80
2023-03-12T10:41:25.419Z,0.80
2023-03-12T10:43:52.740Z,1.15
2023-03-12T10:46:37.922Z,0.80
2023-03-12T10:49:26.143Z,0.90
2023-03-12T10:52:03.608Z,0.85
2023-03-12T10:54:34.888Z,0.60
2023-03-12T10:57:01.589Z,0.65
2023-03-12T10:59:31.966Z,0.60
2023-03-12T11:01:59.548Z,0.55
2023-03-12T11:04:30.508Z,0.60
2023-03-12T11:07:12.257Z,0.75
2023-03-12T11:09:39.102Z,0.50
2023-03-12T11:12:26.244Z,0.50
2023-03-12T11:14:53.290Z,0.68
2023-03-12T11:17:25.766Z,0.50
2023-03-12T11:19:53.211Z,0.40
2023-03-12T11:22:34.413Z,0.63
2023-03-12T11:25:06.103Z,0.88
2023-03-12T11:27:42.048Z,0.52
2023-03-12T11:30:15.489Z,0.63
2023-03-12T11:32:46.960Z,0.43
2023-03-12T11:35:17.729Z,0.87
2023-03-12T11:38:05.766Z,0.47
2023-03-12T11:41:06.304Z,0.63
2023-03-12T11:43:52.114Z,0.43
2023-03-12T11:46:41.958Z,0.63
2023-03-12T11:49:34.596Z,0.45
2023-03-12T11:55:07.901Z,0.40
2023-03-12T11:58:03.970Z,0.60
2023-03-12T12:00:48.033Z,0.70
2023-03-12T12:03:28.392Z,0.30
2023-03-12T12:06:27.528Z,0.35
2023-03-12T12:09:23.988Z,0.60
2023-03-12T12:12:02.479Z,0.50
2023-03-12T12:14:56.003Z,0.68
2023-03-12T12:18:08.039Z,0.67
2023-03-12T12:20:39.774Z,0.63
2023-03-12T12:23:22.233Z,0.52
2023-03-12T12:26:07.246Z,0.93
2023-03-12T12:29:03.301Z,0.82
2023-03-12T12:31:40.673Z,0.70
2023-03-12T12:34:25.437Z,0.40
2023-03-12T12:37:14.823Z,1.05
2023-03-12T12:40:22.550Z,0.50
2023-03-12T12:42:52.103Z,0.77
2023-03-12T12:45:21.118Z,0.65
2023-03-12T12:47:56.106Z,0.60
2023-03-12T12:50:27.448Z,0.63
2023-03-12T12:53:15.745Z,0.60
2023-03-12T12:56:03.595Z,0.50
2023-03-12T12:59:09.453Z,0.45
2023-03-12T13:01:37.998Z,0.63
2023-03-12T13:04:10.800Z,0.70
2023-03-12T13:07:12.616Z,0.88
2023-03-12T13:09:45.753Z,0.55
2023-03-12T13:12:20.688Z,0.65
2023-03-12T13:14:49.254Z,0.82
2023-03-12T13:17:30.145Z,0.90
2023-03-12T13:20:11.114Z,0.50
2023-03-12T13:22:37.675Z,1.38
2023-03-12T13:25:09.938Z,1.55
2023-03-12T13:30:35.183Z,0.63
2023-03-12T13:33:02.007Z,0.50
2023-03-12T13:36:03.800Z,0.90
2023-03-12T13:38:57.221Z,0.93
2023-03-12T13:41:36.987Z,0.82
2023-03-12T13:44:31.506Z,0.90
2023-03-12T13:47:01.039Z,0.32
2023-03-12T13:49:36.788Z,0.50
2023-03-12T13:52:03.753Z,0.55
2023-03-12T13:54:34.055Z,0.38
2023-03-12T13:57:30.672Z,0.68
2023-03-12T13:59:58.796Z,0.70
2023-03-12T14:02:31.616Z,0.85
2023-03-12T14:05:09.579Z,0.60
2023-03-12T14:07:55.612Z,0.65
2023-03-12T14:10:46.657Z,0.85
2023-03-12T14:13:29.088Z,1.42
2023-03-12T14:18:39.401Z,0.52
2023-03-12T14:21:14.202Z,0.70
2023-03-12T14:23:51.148Z,0.50
2023-03-12T14:26:24.586Z,1.13
2023-03-12T14:29:13.337Z,0.63
2023-03-12T14:31:40.730Z,0.50
2023-03-12T14:34:20.715Z,0.60
2023-03-12T14:37:12.893Z,0.40
2023-03-12T14:39:45.672Z,0.40
2023-03-12T14:42:45.075Z,1.15
2023-03-12T14:45:21.013Z,0.60
2023-03-12T14:47:58.577Z,0.70
2023-03-12T14:50:37.614Z,0.50
2023-03-12T14:53:19.345Z,0.40
2023-03-12T14:55:46.049Z,0.50
2023-03-12T14:58:18.880Z,0.85
2023-03-12T15:00:57.907Z,0.50
2023-03-12T15:03:27.086Z,0.77
2023-03-12T15:05:54.147Z,0.45
2023-03-12T15:08:21.704Z,0.50
2023-03-12T15:10:57.750Z,0.50
2023-03-12T15:13:27.217Z,0.30
2023-03-12T15:15:55.481Z,0.77
2023-03-12T15:18:28.996Z,1.02
2023-03-12T15:20:57.808Z,0.60
2023-03-12T15:23:26.370Z,0.98
2023-03-12T15:26:21.289Z,0.60
2023-03-12T15:29:01.353Z,1.13
2023-03-12T15:31:28.474Z,0.90
2023-03-12T15:34:04.096Z,0.70
2023-03-12T15:36:33.434Z,0.90
2023-03-12T15:39:16.517Z,0.80
2023-03-12T15:41:47.818Z,0.60
2023-03-12T15:44:26.809Z,0.90
2023-03-12T15:47:08.028Z,0.93
2023-03-12T15:49:37.388Z,1.20
2023-03-12T15:52:24.734Z,1.50
2023-03-12T15:55:14.514Z,0.55
2023-03-12T15:57:53.062Z,0.63
2023-03-12T16:00:24.214Z,0.63
2023-03-12T16:02:56.005Z,0.50
2023-03-12T16:05:35.706Z,0.60
2023-03-12T16:08:21.578Z,0.80
2023-03-12T16:10:50.243Z,1.20
2023-03-12T16:13:20.262Z,0.85
2023-03-12T16:15:48.022Z,0.60
2023-03-12T16:18:19.861Z,1.08
2023-03-12T16:20:48.305Z,0.63
2023-03-12T16:23:15.648Z,0.70
2023-03-12T16:25:48.434Z,0.90
2023-03-12T16:28:18.654Z,1.05
2023-03-12T16:30:45.717Z,0.75
2023-03-12T16:33:15.532Z,1.45
2023-03-12T16:35:42.713Z,1.08
2023-03-12T16:38:33.146Z,1.00
2023-03-12T16:41:00.193Z,1.00
2023-03-12T16:43:29.936Z,1.05
2023-03-12T16:45:57.952Z,1.08
2023-03-12T16:48:25.624Z,0.77
2023-03-12T16:53:32.294Z,1.08
2023-03-12T16:56:01.273Z,0.90
2023-03-12T16:58:30.175Z,1.10
2023-03-12T17:00:57.879Z,0.82
2023-03-12T17:03:35.051Z,0.93
2023-03-12T17:06:03.076Z,1.48
2023-03-12T17:08:29.706Z,1.45
2023-03-12T17:10:57.577Z,1.35
2023-03-12T17:13:27.324Z,1.23
2023-03-12T17:15:55.579Z,1.63
2023-03-12T17:18:22.790Z,1.25
2023-03-12T17:20:51.789Z,1.38
2023-03-12T17:23:19.463Z,1.42
2023-03-12T17:25:46.592Z,1.00
2023-03-12T17:28:15.352Z,1.55
2023-03-12T17:30:43.990Z,1.15
2023-03-12T17:33:16.400Z,1.00
2023-03-12T17:38:10.718Z,1.33
2023-03-12T17:40:42.231Z,1.80
2023-03-12T17:43:09.264Z,0.85
2023-03-12T17:45:37.160Z,1.70
2023-03-12T17:48:04.250Z,1.60
2023-03-12T17:50:31.150Z,1.13
2023-03-12T17:52:57.834Z,3.35
2023-03-12T17:55:24.584Z,2.13
2023-03-12T17:57:51.293Z,1.73
2023-03-12T18:00:18.373Z,1.80
2023-03-12T18:02:45.110Z,1.92
2023-03-12T18:05:12.310Z,1.80
2023-03-12T18:07:39.959Z,1.10
2023-03-12T18:10:11.123Z,2.90
2023-03-12T18:12:41.103Z,2.80
2023-03-12T18:15:11.014Z,1.30
2023-03-12T18:17:38.143Z,1.25
2023-03-12T18:20:21.306Z,1.63
2023-03-12T18:22:53.136Z,1.98
2023-03-12T18:25:19.768Z,2.00
2023-03-12T18:27:46.664Z,1.90
2023-03-12T18:30:13.811Z,1.58
2023-03-12T18:32:41.227Z,1.85
2023-03-12T18:35:08.402Z,2.10
2023-03-12T18:37:35.051Z,2.10
2023-03-12T18:40:01.779Z,2.60
2023-03-12T18:42:28.465Z,1.67
2023-03-12T18:44:55.178Z,1.35
2023-03-12T18:47:21.801Z,1.25
2023-03-12T18:49:48.524Z,1.70
2023-03-12T18:52:15.232Z,1.33
2023-03-12T18:54:41.906Z,1.65
2023-03-12T18:57:08.706Z,1.35
2023-03-12T18:59:35.356Z,1.88
2023-03-12T19:02:02.106Z,2.35
2023-03-12T19:04:29.140Z,1.92
2023-03-12T19:06:55.920Z,1.55
2023-03-12T19:09:22.761Z,1.67
2023-03-12T19:11:49.803Z,2.10
2023-03-12T19:14:17.102Z,1.73
2023-03-12T19:16:43.925Z,2.80
2023-03-12T19:19:10.796Z,2.10
2023-03-12T19:21:37.655Z,2.05
2023-03-12T19:24:04.714Z,2.67
2023-03-12T19:26:31.370Z,4.32
2023-03-12T19:28:58.039Z,2.47
2023-03-12T19:31:25.555Z,1.92
2023-03-12T19:33:52.614Z,1.95
2023-03-12T19:36:19.300Z,2.65
2023-03-12T19:38:45.926Z,2.20
2023-03-12T19:41:12.686Z,2.03
2023-03-12T19:43:40.803Z,2.42
2023-03-12T19:46:07.487Z,2.17
2023-03-12T19:48:34.398Z,2.22
2023-03-12T19:51:09.065Z,2.17
2023-03-12T19:53:36.149Z,2.17
2023-03-12T19:56:03.005Z,2.45
2023-03-12T19:58:32.381Z,1.88
2023-03-12T20:01:00.556Z,1.67
2023-03-12T20:03:28.831Z,2.03
2023-03-12T20:05:55.984Z,2.10
2023-03-12T20:08:26.321Z,2.45
2023-03-12T20:10:53.176Z,1.63
2023-03-12T20:13:20.333Z,2.08
2023-03-12T20:15:48.486Z,2.17
2023-03-12T20:18:16.148Z,1.77
2023-03-12T20:20:43.491Z,2.60
2023-03-12T20:23:10.346Z,2.10
2023-03-12T20:25:43.142Z,2.05
2023-03-12T20:28:11.186Z,1.67
2023-03-12T20:30:41.529Z,1.83
2023-03-12T20:33:08.775Z,2.70
2023-03-12T20:35:36.530Z,1.83
2023-03-12T20:38:04.175Z,2.05
2023-03-12T20:40:31.184Z,1.67
2023-03-12T20:42:57.964Z,2.35
2023-03-12T20:45:24.574Z,2.53
2023-03-12T20:47:51.471Z,2.25
2023-03-12T20:50:18.183Z,2.47
2023-03-12T20:52:45.289Z,2.50
2023-03-12T20:55:12.095Z,2.10
2023-03-12T20:57:38.832Z,2.33
2023-03-12T21:00:06.145Z,2.42
2023-03-12T21:02:32.826Z,1.60
2023-03-12T21:04:59.468Z,2.05
2023-03-12T21:07:26.126Z,1.65
2023-03-12T21:09:52.740Z,1.45
2023-03-12T21:12:19.355Z,1.98
2023-03-12T21:14:45.961Z,1.80
2023-03-12T21:17:13.789Z,1.88
2023-03-12T21:19:41.695Z,2.38
2023-03-12T21:22:09.088Z,2.03
2023-03-12T21:24:36.209Z,1.70
2023-03-12T21:27:03.119Z,1.95
2023-03-12T21:29:29.904Z,1.75
2023-03-12T21:31:57.514Z,1.75
2023-03-12T21:34:24.322Z,1.77
2023-03-12T21:36:50.973Z,2.13
2023-03-12T21:39:18.010Z,1.60
2023-03-12T21:41:44.690Z,1.75
2023-03-12T21:44:11.355Z,2.38
2023-03-12T21:46:38.177Z,2.45
2023-03-12T21:49:04.931Z,1.85
2023-03-12T21:51:31.555Z,1.80
2023-03-12T21:53:58.558Z,1.80
2023-03-12T21:56:28.181Z,3.90
2023-03-12T21:58:57.269Z,4.35
2023-03-12T22:01:24.546Z,2.22
2023-03-12T22:03:51.472Z,1.85
2023-03-12T22:06:18.156Z,1.60
2023-03-12T22:08:48.111Z,1.23
2023-03-12T22:11:15.834Z,1.63
2023-03-12T22:13:42.771Z,1.27
2023-03-12T22:16:11.964Z,1.77
2023-03-12T22:18:40.945Z,1.83
2023-03-12T22:21:09.074Z,1.95
2023-03-12T22:23:36.801Z,2.25
2023-03-12T22:26:05.775Z,1.88
2023-03-12T22:28:32.987Z,1.60
2023-03-12T22:31:01.193Z,2.40
2023-03-12T22:33:28.428Z,1.00
2023-03-12T22:35:55.539Z,1.50
2023-03-12T22:38:23.634Z,1.85
2023-03-12T22:40:50.336Z,1.25
2023-03-12T22:43:17.020Z,1.55
2023-03-12T22:45:43.895Z,1.35
2023-03-12T22:48:10.557Z,3.00
2023-03-12T22:50:37.396Z,2.35
2023-03-12T22:53:04.170Z,1.55
2023-03-12T22:55:30.868Z,1.92
2023-03-12T22:57:57.506Z,1.55
2023-03-12T23:00:26.631Z,1.83
2023-03-12T23:02:53.404Z,2.17
2023-03-12T23:05:20.156Z,2.35
2023-03-12T23:07:46.972Z,2.58
2023-03-12T23:10:13.575Z,1.60
2023-03-12T23:12:40.234Z,1.98
2023-03-12T23:15:07.342Z,2.30
2023-03-12T23:17:34.122Z,1.80
2023-03-12T23:20:00.687Z,1.40
2023-03-12T23:22:27.314Z,1.77
2023-03-12T23:24:53.931Z,1.95
2023-03-12T23:27:20.556Z,1.92
2023-03-12T23:29:47.160Z,1.63
2023-03-12T23:32:13.876Z,2.00
2023-03-12T23:34:40.440Z,2.15
2023-03-12T23:37:07.284Z,1.70
2023-03-12T23:39:44.939Z,2.05
2023-03-12T23:42:18.544Z,1.98
2023-03-12T23:44:46.400Z,2.17
2023-03-12T23:47:13.002Z,2.42
2023-03-12T23:49:39.580Z,2.50
2023-03-12T23:52:06.475Z,1.95
2023-03-12T23:54:33.187Z,1.80
2023-03-12T23:56:59.792Z,2.40
2023-03-12T23:59:26.330Z,2.05
